Etusivu
METAR-TAF:

METAR-TAF

Lentoasemat :

La Paz, Meksiko

Leveyspiiri: 24-04N, Pituuspiiri: 110-22W, korkeus merenpinnasta: 21 m

Tämänhetkinen sää

Tämä raportti tehtiin 1 tunti ja 21 minuuttia sitten, kello 20.41 UTC
Tuuli 10 kn pohjoisen/luoteesta
Lämpötila 29°C
Kosteus 40%
Ilmanpaine 1013 hPa
Näkyvyys: 16.1 km
Hajanaisia pilviä 22000 ft:n korkeudessa

METAR: MMLP 302041Z 33010KT 10SM SCT220 29/14 A2991 RMK SLP127 57024 953 8/008 ISOL AC

Aika: 15:02 (22:02 UTC)

Sääennuste

Tämä raportti tehtiin 5 tuntia ja 17 minuuttia sitten, kello 16.45 UTC
Ennuste voimassa 30. päivästä klo 18 UTC - 31. päivään klo 18 UTC
Tuuli 15 kn pohjoisen/luoteesta
Näkyvyys: 10 km
selkeää
Tulossa
31. päivästä klo 00 UTC - 31. päivään klo 01 UTC
Tuuli kn pohjoisesta
From 31. päivästä klo 1500 UTC
Tuuli 10 kn kaakosta
Näkyvyys: 10 km
selkeää

TAF: MMLP 301645Z 3018/3118 34015KT P6SM SKC BECMG 3100/3101 00000KT FM311500 13010KT P6SM SKC

Säähavainnot ja -ennusteet yli 4000 lentoasemalta (METAR- ja TAF-raportit).

Käytössä olevat sääasemat on merkitty karttaan keltaisilla ja punaisilla pisteillä.

Aseta hiiri pisteen päälle nähdäksesi sääaseman nimen.

Klikkaa sitten nähdäksesi säähavainnot ja -ennusteet.

Kartan vaihtaminen: klikkaa mustalla rastilla varustettuja vihreitä pisteitä, niin voit zoomata sisään; viivalla varustettua vihreää pistettä, niin voit zoomata ulos tai vihreitä nuolia, niin pääset viereisille kartoille.


METAR-TAF: